sensor_id;sensor_type;location;lat;lon;timestamp;P1;durP1;ratioP1;P2;durP2;ratioP2
41101;SDS011;26845;50.190;19.178;2022-10-31T00:00:59;11.73;;;6.78;;
41101;SDS011;26845;50.190;19.178;2022-10-31T00:03:26;17.48;;;9.20;;
41101;SDS011;26845;50.190;19.178;2022-10-31T00:05:52;16.12;;;7.80;;
41101;SDS011;26845;50.190;19.178;2022-10-31T00:08:18;12.88;;;6.90;;
41101;SDS011;26845;50.190;19.178;2022-10-31T00:10:44;14.60;;;8.25;;
41101;SDS011;26845;50.190;19.178;2022-10-31T00:13:12;12.07;;;7.05;;
41101;SDS011;26845;50.190;19.178;2022-10-31T00:15:39;19.77;;;10.55;;
41101;SDS011;26845;50.190;19.178;2022-10-31T00:18:06;32.98;;;18.62;;
41101;SDS011;26845;50.190;19.178;2022-10-31T00:20:34;29.40;;;17.30;;
41101;SDS011;26845;50.190;19.178;2022-10-31T00:23:00;29.07;;;18.20;;
41101;SDS011;26845;50.190;19.178;2022-10-31T00:25:28;27.73;;;16.87;;
41101;SDS011;26845;50.190;19.178;2022-10-31T00:27:54;23.60;;;15.43;;
41101;SDS011;26845;50.190;19.178;2022-10-31T00:30:21;24.18;;;15.50;;
41101;SDS011;26845;50.190;19.178;2022-10-31T00:32:46;20.57;;;12.68;;
41101;SDS011;26845;50.190;19.178;2022-10-31T00:35:12;21.48;;;12.93;;
41101;SDS011;26845;50.190;19.178;2022-10-31T00:37:38;20.10;;;12.30;;
41101;SDS011;26845;50.190;19.178;2022-10-31T00:40:03;22.17;;;12.75;;
41101;SDS011;26845;50.190;19.178;2022-10-31T00:42:30;23.50;;;15.25;;
41101;SDS011;26845;50.190;19.178;2022-10-31T00:44:56;23.25;;;13.48;;
41101;SDS011;26845;50.190;19.178;2022-10-31T00:47:22;21.65;;;12.80;;
41101;SDS011;26845;50.190;19.178;2022-10-31T00:49:47;26.85;;;14.20;;
41101;SDS011;26845;50.190;19.178;2022-10-31T00:52:13;23.05;;;13.55;;
41101;SDS011;26845;50.190;19.178;2022-10-31T00:54:38;23.67;;;15.08;;
41101;SDS011;26845;50.190;19.178;2022-10-31T00:57:04;25.60;;;13.95;;
41101;SDS011;26845;50.190;19.178;2022-10-31T00:59:30;25.50;;;12.85;;
41101;SDS011;26845;50.190;19.178;2022-10-31T01:01:55;25.55;;;14.65;;
41101;SDS011;26845;50.190;19.178;2022-10-31T01:04:21;20.70;;;13.15;;
41101;SDS011;26845;50.190;19.178;2022-10-31T01:06:47;21.33;;;14.13;;
41101;SDS011;26845;50.190;19.178;2022-10-31T01:09:12;25.45;;;14.58;;
41101;SDS011;26845;50.190;19.178;2022-10-31T01:11:38;23.70;;;15.08;;
41101;SDS011;26845;50.190;19.178;2022-10-31T01:14:04;28.38;;;14.78;;
41101;SDS011;26845;50.190;19.178;2022-10-31T01:16:29;22.87;;;14.60;;
41101;SDS011;26845;50.190;19.178;2022-10-31T01:18:55;25.97;;;15.48;;
41101;SDS011;26845;50.190;19.178;2022-10-31T01:21:21;30.72;;;16.82;;
41101;SDS011;26845;50.190;19.178;2022-10-31T01:23:52;28.25;;;14.87;;
41101;SDS011;26845;50.190;19.178;2022-10-31T01:26:20;22.67;;;15.00;;
41101;SDS011;26845;50.190;19.178;2022-10-31T01:28:52;27.98;;;16.67;;
41101;SDS011;26845;50.190;19.178;2022-10-31T01:31:21;30.57;;;17.00;;
41101;SDS011;26845;50.190;19.178;2022-10-31T01:33:50;23.18;;;14.87;;
41101;SDS011;26845;50.190;19.178;2022-10-31T01:36:22;26.12;;;15.35;;
41101;SDS011;26845;50.190;19.178;2022-10-31T01:38:51;22.93;;;15.03;;
41101;SDS011;26845;50.190;19.178;2022-10-31T01:41:21;25.32;;;15.08;;
41101;SDS011;26845;50.190;19.178;2022-10-31T01:48:59;23.92;;;14.25;;
41101;SDS011;26845;50.190;19.178;2022-10-31T01:51:29;24.37;;;13.68;;
41101;SDS011;26845;50.190;19.178;2022-10-31T01:54:00;21.68;;;14.10;;
41101;SDS011;26845;50.190;19.178;2022-10-31T01:56:31;19.25;;;11.43;;
41101;SDS011;26845;50.190;19.178;2022-10-31T01:59:02;20.70;;;12.28;;
41101;SDS011;26845;50.190;19.178;2022-10-31T02:01:33;19.27;;;12.68;;
41101;SDS011;26845;50.190;19.178;2022-10-31T02:03:59;24.10;;;12.85;;
41101;SDS011;26845;50.190;19.178;2022-10-31T02:09:15;19.82;;;13.08;;
41101;SDS011;26845;50.190;19.178;2022-10-31T02:11:45;22.15;;;13.20;;
41101;SDS011;26845;50.190;19.178;2022-10-31T02:14:11;22.13;;;13.55;;
41101;SDS011;26845;50.190;19.178;2022-10-31T02:16:38;21.55;;;13.30;;
41101;SDS011;26845;50.190;19.178;2022-10-31T02:19:04;25.62;;;15.95;;
41101;SDS011;26845;50.190;19.178;2022-10-31T02:21:45;30.00;;;17.95;;
41101;SDS011;26845;50.190;19.178;2022-10-31T02:27:11;22.03;;;14.33;;
41101;SDS011;26845;50.190;19.178;2022-10-31T02:39:07;25.45;;;14.85;;
41101;SDS011;26845;50.190;19.178;2022-10-31T02:44:28;22.90;;;14.75;;
41101;SDS011;26845;50.190;19.178;2022-10-31T02:47:06;27.25;;;15.25;;
41101;SDS011;26845;50.190;19.178;2022-10-31T02:52:28;25.50;;;14.85;;
41101;SDS011;26845;50.190;19.178;2022-10-31T02:54:57;27.67;;;14.33;;
41101;SDS011;26845;50.190;19.178;2022-10-31T02:57:29;23.95;;;13.40;;
41101;SDS011;26845;50.190;19.178;2022-10-31T03:00:00;25.02;;;14.50;;
41101;SDS011;26845;50.190;19.178;2022-10-31T03:02:32;24.50;;;16.32;;
41101;SDS011;26845;50.190;19.178;2022-10-31T03:10:38;35.23;;;21.73;;
41101;SDS011;26845;50.190;19.178;2022-10-31T03:18:59;35.90;;;21.95;;
41101;SDS011;26845;50.190;19.178;2022-10-31T03:21:47;33.42;;;19.00;;
41101;SDS011;26845;50.190;19.178;2022-10-31T03:24:34;31.90;;;18.27;;
41101;SDS011;26845;50.190;19.178;2022-10-31T03:29:31;35.38;;;19.20;;
41101;SDS011;26845;50.190;19.178;2022-10-31T03:32:02;33.88;;;18.35;;
41101;SDS011;26845;50.190;19.178;2022-10-31T03:34:32;32.30;;;18.52;;
41101;SDS011;26845;50.190;19.178;2022-10-31T03:37:02;25.97;;;16.70;;
41101;SDS011;26845;50.190;19.178;2022-10-31T03:39:35;29.25;;;17.67;;
41101;SDS011;26845;50.190;19.178;2022-10-31T03:42:15;23.38;;;15.28;;
41101;SDS011;26845;50.190;19.178;2022-10-31T03:44:53;25.37;;;16.00;;
41101;SDS011;26845;50.190;19.178;2022-10-31T03:47:33;35.50;;;21.12;;
41101;SDS011;26845;50.190;19.178;2022-10-31T03:50:02;35.65;;;21.07;;
41101;SDS011;26845;50.190;19.178;2022-10-31T03:55:31;37.63;;;23.27;;
41101;SDS011;26845;50.190;19.178;2022-10-31T03:58:12;29.23;;;19.32;;
41101;SDS011;26845;50.190;19.178;2022-10-31T04:00:42;29.67;;;17.20;;
41101;SDS011;26845;50.190;19.178;2022-10-31T04:03:15;23.42;;;15.38;;
41101;SDS011;26845;50.190;19.178;2022-10-31T04:05:57;20.50;;;12.58;;
41101;SDS011;26845;50.190;19.178;2022-10-31T04:08:28;24.60;;;12.98;;
41101;SDS011;26845;50.190;19.178;2022-10-31T04:10:57;24.18;;;14.03;;
41101;SDS011;26845;50.190;19.178;2022-10-31T04:13:29;26.65;;;14.33;;
41101;SDS011;26845;50.190;19.178;2022-10-31T04:15:58;21.70;;;14.50;;
41101;SDS011;26845;50.190;19.178;2022-10-31T04:18:24;30.37;;;15.83;;
41101;SDS011;26845;50.190;19.178;2022-10-31T04:20:59;28.02;;;15.65;;
41101;SDS011;26845;50.190;19.178;2022-10-31T04:23:27;19.10;;;13.43;;
41101;SDS011;26845;50.190;19.178;2022-10-31T04:25:53;21.02;;;12.95;;
41101;SDS011;26845;50.190;19.178;2022-10-31T04:28:19;24.37;;;14.60;;
41101;SDS011;26845;50.190;19.178;2022-10-31T04:30:45;28.62;;;15.98;;
41101;SDS011;26845;50.190;19.178;2022-10-31T04:33:11;38.90;;;21.93;;
41101;SDS011;26845;50.190;19.178;2022-10-31T04:35:37;43.45;;;23.67;;
41101;SDS011;26845;50.190;19.178;2022-10-31T04:38:02;32.65;;;20.75;;
41101;SDS011;26845;50.190;19.178;2022-10-31T04:40:28;29.70;;;17.42;;
41101;SDS011;26845;50.190;19.178;2022-10-31T04:42:54;28.57;;;16.27;;
41101;SDS011;26845;50.190;19.178;2022-10-31T04:45:19;26.00;;;15.18;;
41101;SDS011;26845;50.190;19.178;2022-10-31T04:47:45;25.32;;;15.40;;
41101;SDS011;26845;50.190;19.178;2022-10-31T04:50:10;27.48;;;15.98;;
41101;SDS011;26845;50.190;19.178;2022-10-31T04:52:40;26.37;;;14.75;;
41101;SDS011;26845;50.190;19.178;2022-10-31T04:55:05;26.10;;;15.32;;
41101;SDS011;26845;50.190;19.178;2022-10-31T04:57:32;28.62;;;16.55;;
41101;SDS011;26845;50.190;19.178;2022-10-31T04:59:57;25.72;;;15.28;;
41101;SDS011;26845;50.190;19.178;2022-10-31T05:02:23;25.20;;;16.12;;
41101;SDS011;26845;50.190;19.178;2022-10-31T05:04:48;27.02;;;16.75;;
41101;SDS011;26845;50.190;19.178;2022-10-31T05:07:14;28.25;;;17.77;;
41101;SDS011;26845;50.190;19.178;2022-10-31T05:09:40;27.40;;;15.23;;
41101;SDS011;26845;50.190;19.178;2022-10-31T05:12:06;26.37;;;14.50;;
41101;SDS011;26845;50.190;19.178;2022-10-31T05:14:31;25.60;;;13.15;;
41101;SDS011;26845;50.190;19.178;2022-10-31T05:16:57;20.05;;;12.65;;
41101;SDS011;26845;50.190;19.178;2022-10-31T05:19:22;23.62;;;12.75;;
41101;SDS011;26845;50.190;19.178;2022-10-31T05:21:48;23.30;;;13.25;;
41101;SDS011;26845;50.190;19.178;2022-10-31T05:24:14;23.57;;;14.45;;
41101;SDS011;26845;50.190;19.178;2022-10-31T05:26:39;24.95;;;13.43;;
41101;SDS011;26845;50.190;19.178;2022-10-31T05:29:05;24.45;;;14.20;;
41101;SDS011;26845;50.190;19.178;2022-10-31T05:31:30;18.60;;;12.55;;
41101;SDS011;26845;50.190;19.178;2022-10-31T05:33:56;23.27;;;14.28;;
41101;SDS011;26845;50.190;19.178;2022-10-31T05:36:22;25.75;;;16.02;;
41101;SDS011;26845;50.190;19.178;2022-10-31T05:38:47;26.65;;;12.98;;
41101;SDS011;26845;50.190;19.178;2022-10-31T05:41:13;27.17;;;12.80;;
41101;SDS011;26845;50.190;19.178;2022-10-31T05:43:38;24.92;;;13.60;;
41101;SDS011;26845;50.190;19.178;2022-10-31T05:46:04;22.90;;;11.70;;
41101;SDS011;26845;50.190;19.178;2022-10-31T05:48:29;30.50;;;15.00;;
41101;SDS011;26845;50.190;19.178;2022-10-31T05:50:55;22.48;;;12.05;;
41101;SDS011;26845;50.190;19.178;2022-10-31T05:53:21;27.45;;;13.75;;
41101;SDS011;26845;50.190;19.178;2022-10-31T05:55:46;20.92;;;11.57;;
41101;SDS011;26845;50.190;19.178;2022-10-31T05:58:12;26.95;;;14.45;;
41101;SDS011;26845;50.190;19.178;2022-10-31T06:00:38;27.13;;;13.30;;
41101;SDS011;26845;50.190;19.178;2022-10-31T06:03:07;26.40;;;14.30;;
41101;SDS011;26845;50.190;19.178;2022-10-31T06:05:35;26.42;;;13.25;;
41101;SDS011;26845;50.190;19.178;2022-10-31T06:08:00;23.73;;;12.75;;
41101;SDS011;26845;50.190;19.178;2022-10-31T06:10:26;24.25;;;13.10;;
41101;SDS011;26845;50.190;19.178;2022-10-31T06:12:52;25.12;;;13.83;;
41101;SDS011;26845;50.190;19.178;2022-10-31T06:15:18;26.33;;;13.80;;
41101;SDS011;26845;50.190;19.178;2022-10-31T06:17:44;29.00;;;17.45;;
41101;SDS011;26845;50.190;19.178;2022-10-31T06:20:10;33.85;;;18.82;;
41101;SDS011;26845;50.190;19.178;2022-10-31T06:22:36;28.25;;;15.50;;
41101;SDS011;26845;50.190;19.178;2022-10-31T06:25:02;29.18;;;15.58;;
41101;SDS011;26845;50.190;19.178;2022-10-31T06:27:28;28.67;;;15.13;;
41101;SDS011;26845;50.190;19.178;2022-10-31T06:29:54;29.72;;;14.87;;
41101;SDS011;26845;50.190;19.178;2022-10-31T06:32:19;24.75;;;13.95;;
41101;SDS011;26845;50.190;19.178;2022-10-31T06:34:45;27.55;;;14.95;;
41101;SDS011;26845;50.190;19.178;2022-10-31T06:37:14;23.32;;;14.87;;
41101;SDS011;26845;50.190;19.178;2022-10-31T06:39:40;26.68;;;15.08;;
41101;SDS011;26845;50.190;19.178;2022-10-31T06:42:06;26.20;;;15.18;;
41101;SDS011;26845;50.190;19.178;2022-10-31T06:44:32;23.30;;;14.10;;
41101;SDS011;26845;50.190;19.178;2022-10-31T06:46:58;23.67;;;13.93;;
41101;SDS011;26845;50.190;19.178;2022-10-31T06:49:26;23.40;;;13.70;;
41101;SDS011;26845;50.190;19.178;2022-10-31T06:51:51;24.87;;;14.47;;
41101;SDS011;26845;50.190;19.178;2022-10-31T06:54:17;23.05;;;12.80;;
41101;SDS011;26845;50.190;19.178;2022-10-31T06:56:44;22.10;;;13.18;;
41101;SDS011;26845;50.190;19.178;2022-10-31T06:59:13;22.07;;;13.53;;
41101;SDS011;26845;50.190;19.178;2022-10-31T07:01:40;25.75;;;14.53;;
41101;SDS011;26845;50.190;19.178;2022-10-31T07:04:09;25.95;;;15.60;;
41101;SDS011;26845;50.190;19.178;2022-10-31T07:06:36;23.83;;;13.90;;
41101;SDS011;26845;50.190;19.178;2022-10-31T07:09:01;21.75;;;12.40;;
41101;SDS011;26845;50.190;19.178;2022-10-31T07:11:27;23.65;;;14.28;;
41101;SDS011;26845;50.190;19.178;2022-10-31T07:13:53;20.08;;;12.98;;
41101;SDS011;26845;50.190;19.178;2022-10-31T07:16:19;25.27;;;13.38;;
41101;SDS011;26845;50.190;19.178;2022-10-31T07:18:44;25.75;;;15.45;;
41101;SDS011;26845;50.190;19.178;2022-10-31T07:21:10;27.32;;;15.85;;
41101;SDS011;26845;50.190;19.178;2022-10-31T07:23:35;23.80;;;13.40;;
41101;SDS011;26845;50.190;19.178;2022-10-31T07:26:01;24.15;;;13.98;;
41101;SDS011;26845;50.190;19.178;2022-10-31T07:28:28;26.20;;;15.23;;
41101;SDS011;26845;50.190;19.178;2022-10-31T07:30:55;26.60;;;15.85;;
41101;SDS011;26845;50.190;19.178;2022-10-31T07:33:24;23.98;;;16.12;;
41101;SDS011;26845;50.190;19.178;2022-10-31T07:35:53;28.42;;;15.78;;
41101;SDS011;26845;50.190;19.178;2022-10-31T07:38:19;25.70;;;14.98;;
41101;SDS011;26845;50.190;19.178;2022-10-31T07:40:48;22.07;;;14.10;;
41101;SDS011;26845;50.190;19.178;2022-10-31T07:43:20;21.52;;;13.93;;
41101;SDS011;26845;50.190;19.178;2022-10-31T07:45:50;27.22;;;14.00;;
41101;SDS011;26845;50.190;19.178;2022-10-31T07:48:18;25.23;;;14.30;;
41101;SDS011;26845;50.190;19.178;2022-10-31T07:50:44;20.80;;;13.53;;
41101;SDS011;26845;50.190;19.178;2022-10-31T07:53:11;22.73;;;13.93;;
41101;SDS011;26845;50.190;19.178;2022-10-31T07:55:37;20.27;;;12.90;;
41101;SDS011;26845;50.190;19.178;2022-10-31T07:58:05;22.62;;;13.95;;
41101;SDS011;26845;50.190;19.178;2022-10-31T08:00:40;22.40;;;13.18;;
41101;SDS011;26845;50.190;19.178;2022-10-31T08:03:13;20.97;;;14.03;;
41101;SDS011;26845;50.190;19.178;2022-10-31T08:05:41;20.60;;;13.05;;
41101;SDS011;26845;50.190;19.178;2022-10-31T08:08:10;17.98;;;12.30;;
41101;SDS011;26845;50.190;19.178;2022-10-31T08:10:37;19.42;;;12.03;;
41101;SDS011;26845;50.190;19.178;2022-10-31T08:13:10;23.57;;;12.43;;
41101;SDS011;26845;50.190;19.178;2022-10-31T08:15:37;22.13;;;11.75;;
41101;SDS011;26845;50.190;19.178;2022-10-31T08:18:06;21.42;;;11.90;;
41101;SDS011;26845;50.190;19.178;2022-10-31T08:20:38;20.45;;;11.97;;
41101;SDS011;26845;50.190;19.178;2022-10-31T08:23:06;18.67;;;11.20;;
41101;SDS011;26845;50.190;19.178;2022-10-31T08:25:34;18.70;;;10.25;;
41101;SDS011;26845;50.190;19.178;2022-10-31T08:28:01;20.35;;;10.75;;
41101;SDS011;26845;50.190;19.178;2022-10-31T08:30:29;21.70;;;10.23;;
41101;SDS011;26845;50.190;19.178;2022-10-31T08:33:01;15.98;;;10.63;;
41101;SDS011;26845;50.190;19.178;2022-10-31T08:35:27;18.20;;;10.18;;
41101;SDS011;26845;50.190;19.178;2022-10-31T08:37:57;13.80;;;9.58;;
41101;SDS011;26845;50.190;19.178;2022-10-31T08:40:22;17.60;;;9.15;;
41101;SDS011;26845;50.190;19.178;2022-10-31T08:43:01;13.85;;;9.30;;
41101;SDS011;26845;50.190;19.178;2022-10-31T08:45:28;13.78;;;8.68;;
41101;SDS011;26845;50.190;19.178;2022-10-31T08:47:59;17.67;;;9.15;;
41101;SDS011;26845;50.190;19.178;2022-10-31T08:50:26;18.82;;;9.58;;
41101;SDS011;26845;50.190;19.178;2022-10-31T08:52:53;13.60;;;7.75;;
41101;SDS011;26845;50.190;19.178;2022-10-31T08:55:19;13.95;;;7.78;;
41101;SDS011;26845;50.190;19.178;2022-10-31T08:57:45;15.72;;;9.00;;
41101;SDS011;26845;50.190;19.178;2022-10-31T09:00:13;12.60;;;8.20;;
41101;SDS011;26845;50.190;19.178;2022-10-31T09:02:40;18.23;;;9.05;;
41101;SDS011;26845;50.190;19.178;2022-10-31T09:05:06;11.70;;;8.25;;
41101;SDS011;26845;50.190;19.178;2022-10-31T09:07:33;13.00;;;9.25;;
41101;SDS011;26845;50.190;19.178;2022-10-31T09:09:58;14.47;;;9.15;;
41101;SDS011;26845;50.190;19.178;2022-10-31T09:12:24;10.63;;;8.00;;
41101;SDS011;26845;50.190;19.178;2022-10-31T09:14:49;14.50;;;8.23;;
41101;SDS011;26845;50.190;19.178;2022-10-31T09:17:15;13.90;;;8.60;;
41101;SDS011;26845;50.190;19.178;2022-10-31T09:19:41;12.70;;;7.42;;
41101;SDS011;26845;50.190;19.178;2022-10-31T09:22:06;11.22;;;7.20;;
41101;SDS011;26845;50.190;19.178;2022-10-31T09:24:32;16.60;;;7.47;;
41101;SDS011;26845;50.190;19.178;2022-10-31T09:26:58;9.55;;;7.95;;
41101;SDS011;26845;50.190;19.178;2022-10-31T09:29:24;12.75;;;7.40;;
41101;SDS011;26845;50.190;19.178;2022-10-31T09:31:49;13.65;;;8.00;;
41101;SDS011;26845;50.190;19.178;2022-10-31T09:34:15;9.85;;;7.12;;
41101;SDS011;26845;50.190;19.178;2022-10-31T09:36:41;9.55;;;7.20;;
41101;SDS011;26845;50.190;19.178;2022-10-31T09:39:08;12.63;;;7.35;;
41101;SDS011;26845;50.190;19.178;2022-10-31T09:41:41;16.75;;;7.47;;
41101;SDS011;26845;50.190;19.178;2022-10-31T09:47:05;9.80;;;6.97;;
41101;SDS011;26845;50.190;19.178;2022-10-31T09:49:49;11.55;;;7.90;;
41101;SDS011;26845;50.190;19.178;2022-10-31T09:52:38;14.15;;;6.83;;
41101;SDS011;26845;50.190;19.178;2022-10-31T09:57:42;12.90;;;7.05;;
41101;SDS011;26845;50.190;19.178;2022-10-31T10:00:17;14.35;;;6.70;;
41101;SDS011;26845;50.190;19.178;2022-10-31T10:02:44;9.45;;;6.78;;
41101;SDS011;26845;50.190;19.178;2022-10-31T10:05:39;12.88;;;6.85;;
41101;SDS011;26845;50.190;19.178;2022-10-31T10:08:31;10.48;;;6.95;;
41101;SDS011;26845;50.190;19.178;2022-10-31T10:17:18;8.95;;;6.97;;
41101;SDS011;26845;50.190;19.178;2022-10-31T10:20:09;13.68;;;7.60;;
41101;SDS011;26845;50.190;19.178;2022-10-31T10:25:40;10.68;;;6.45;;
41101;SDS011;26845;50.190;19.178;2022-10-31T10:28:20;13.13;;;7.03;;
41101;SDS011;26845;50.190;19.178;2022-10-31T10:34:27;11.00;;;7.95;;
41101;SDS011;26845;50.190;19.178;2022-10-31T10:39:24;14.93;;;7.15;;
41101;SDS011;26845;50.190;19.178;2022-10-31T10:41:54;12.65;;;6.90;;
41101;SDS011;26845;50.190;19.178;2022-10-31T10:44:45;11.05;;;6.22;;
41101;SDS011;26845;50.190;19.178;2022-10-31T10:47:53;11.35;;;6.67;;
41101;SDS011;26845;50.190;19.178;2022-10-31T10:50:16;14.10;;;7.15;;
41101;SDS011;26845;50.190;19.178;2022-10-31T10:55:49;13.13;;;7.58;;
41101;SDS011;26845;50.190;19.178;2022-10-31T10:58:16;10.40;;;6.37;;
41101;SDS011;26845;50.190;19.178;2022-10-31T11:00:45;13.48;;;6.28;;
41101;SDS011;26845;50.190;19.178;2022-10-31T11:03:13;11.55;;;6.28;;
41101;SDS011;26845;50.190;19.178;2022-10-31T11:05:50;10.45;;;6.55;;
41101;SDS011;26845;50.190;19.178;2022-10-31T11:08:36;12.30;;;6.37;;
41101;SDS011;26845;50.190;19.178;2022-10-31T11:13:39;9.50;;;6.10;;
41101;SDS011;26845;50.190;19.178;2022-10-31T11:16:10;13.15;;;6.12;;
41101;SDS011;26845;50.190;19.178;2022-10-31T11:19:04;12.45;;;6.37;;
41101;SDS011;26845;50.190;19.178;2022-10-31T11:21:44;8.47;;;5.77;;
41101;SDS011;26845;50.190;19.178;2022-10-31T11:26:41;7.55;;;4.37;;
41101;SDS011;26845;50.190;19.178;2022-10-31T11:29:14;10.63;;;5.33;;
41101;SDS011;26845;50.190;19.178;2022-10-31T11:31:44;11.33;;;5.35;;
41101;SDS011;26845;50.190;19.178;2022-10-31T11:34:32;12.03;;;4.80;;
41101;SDS011;26845;50.190;19.178;2022-10-31T11:39:44;9.93;;;5.15;;
41101;SDS011;26845;50.190;19.178;2022-10-31T11:42:24;11.73;;;5.92;;
41101;SDS011;26845;50.190;19.178;2022-10-31T11:44:49;11.40;;;6.17;;
41101;SDS011;26845;50.190;19.178;2022-10-31T11:47:17;11.88;;;5.33;;
41101;SDS011;26845;50.190;19.178;2022-10-31T11:49:46;9.58;;;5.25;;
41101;SDS011;26845;50.190;19.178;2022-10-31T11:52:19;12.50;;;4.95;;
41101;SDS011;26845;50.190;19.178;2022-10-31T11:54:53;8.95;;;5.35;;
41101;SDS011;26845;50.190;19.178;2022-10-31T12:00:21;8.90;;;5.60;;
41101;SDS011;26845;50.190;19.178;2022-10-31T12:02:51;13.40;;;6.35;;
41101;SDS011;26845;50.190;19.178;2022-10-31T12:05:39;10.70;;;5.85;;
41101;SDS011;26845;50.190;19.178;2022-10-31T12:08:07;10.15;;;5.12;;
41101;SDS011;26845;50.190;19.178;2022-10-31T12:11:00;10.48;;;4.65;;
41101;SDS011;26845;50.190;19.178;2022-10-31T12:13:23;8.35;;;4.15;;
41101;SDS011;26845;50.190;19.178;2022-10-31T12:16:20;9.70;;;4.53;;
41101;SDS011;26845;50.190;19.178;2022-10-31T12:18:59;13.18;;;5.50;;
41101;SDS011;26845;50.190;19.178;2022-10-31T12:35:40;10.28;;;6.28;;
41101;SDS011;26845;50.190;19.178;2022-10-31T12:38:24;10.15;;;5.75;;
41101;SDS011;26845;50.190;19.178;2022-10-31T12:46:39;11.83;;;6.22;;
41101;SDS011;26845;50.190;19.178;2022-10-31T12:56:27;11.35;;;5.53;;
41101;SDS011;26845;50.190;19.178;2022-10-31T12:58:40;8.63;;;5.20;;
41101;SDS011;26845;50.190;19.178;2022-10-31T13:01:15;10.95;;;5.28;;
41101;SDS011;26845;50.190;19.178;2022-10-31T13:04:03;10.35;;;5.50;;
41101;SDS011;26845;50.190;19.178;2022-10-31T13:06:59;11.60;;;5.53;;
41101;SDS011;26845;50.190;19.178;2022-10-31T13:09:45;9.63;;;5.53;;
41101;SDS011;26845;50.190;19.178;2022-10-31T13:12:15;10.15;;;5.58;;
41101;SDS011;26845;50.190;19.178;2022-10-31T13:14:48;9.33;;;5.05;;
41101;SDS011;26845;50.190;19.178;2022-10-31T13:17:21;15.35;;;5.45;;
41101;SDS011;26845;50.190;19.178;2022-10-31T13:20:12;11.20;;;5.08;;
41101;SDS011;26845;50.190;19.178;2022-10-31T13:23:03;12.00;;;5.50;;
41101;SDS011;26845;50.190;19.178;2022-10-31T13:25:58;12.60;;;5.28;;
41101;SDS011;26845;50.190;19.178;2022-10-31T13:31:18;10.23;;;5.53;;
41101;SDS011;26845;50.190;19.178;2022-10-31T13:36:52;9.00;;;5.08;;
41101;SDS011;26845;50.190;19.178;2022-10-31T13:39:18;9.83;;;6.03;;
41101;SDS011;26845;50.190;19.178;2022-10-31T13:42:03;10.50;;;5.12;;
41101;SDS011;26845;50.190;19.178;2022-10-31T13:44:40;10.40;;;4.72;;
41101;SDS011;26845;50.190;19.178;2022-10-31T13:50:02;8.40;;;4.95;;
41101;SDS011;26845;50.190;19.178;2022-10-31T13:52:50;8.95;;;4.95;;
41101;SDS011;26845;50.190;19.178;2022-10-31T13:55:34;13.75;;;4.37;;
41101;SDS011;26845;50.190;19.178;2022-10-31T13:58:19;12.88;;;5.25;;
41101;SDS011;26845;50.190;19.178;2022-10-31T14:03:54;7.25;;;4.62;;
41101;SDS011;26845;50.190;19.178;2022-10-31T14:06:37;8.28;;;5.25;;
41101;SDS011;26845;50.190;19.178;2022-10-31T14:11:59;10.58;;;4.87;;
41101;SDS011;26845;50.190;19.178;2022-10-31T14:14:46;9.53;;;5.03;;
41101;SDS011;26845;50.190;19.178;2022-10-31T14:17:25;16.73;;;5.30;;
41101;SDS011;26845;50.190;19.178;2022-10-31T14:19:56;12.18;;;5.53;;
41101;SDS011;26845;50.190;19.178;2022-10-31T14:22:31;8.35;;;4.40;;
41101;SDS011;26845;50.190;19.178;2022-10-31T14:24:57;9.68;;;5.03;;
41101;SDS011;26845;50.190;19.178;2022-10-31T14:30:07;9.45;;;4.83;;
41101;SDS011;26845;50.190;19.178;2022-10-31T14:32:40;9.70;;;4.40;;
41101;SDS011;26845;50.190;19.178;2022-10-31T14:35:14;10.35;;;4.75;;
41101;SDS011;26845;50.190;19.178;2022-10-31T14:38:01;8.25;;;3.90;;
41101;SDS011;26845;50.190;19.178;2022-10-31T14:51:38;8.43;;;4.92;;
41101;SDS011;26845;50.190;19.178;2022-10-31T14:54:18;10.28;;;4.97;;
41101;SDS011;26845;50.190;19.178;2022-10-31T14:56:51;13.08;;;5.35;;
41101;SDS011;26845;50.190;19.178;2022-10-31T14:59:24;12.65;;;5.30;;
41101;SDS011;26845;50.190;19.178;2022-10-31T15:02:01;9.28;;;5.08;;
41101;SDS011;26845;50.190;19.178;2022-10-31T15:04:49;9.90;;;4.60;;
41101;SDS011;26845;50.190;19.178;2022-10-31T15:12:45;11.20;;;5.95;;
41101;SDS011;26845;50.190;19.178;2022-10-31T15:15:26;8.93;;;5.62;;
41101;SDS011;26845;50.190;19.178;2022-10-31T15:17:52;11.03;;;6.17;;
41101;SDS011;26845;50.190;19.178;2022-10-31T15:20:29;13.85;;;5.80;;
41101;SDS011;26845;50.190;19.178;2022-10-31T15:22:56;11.30;;;5.47;;
41101;SDS011;26845;50.190;19.178;2022-10-31T15:25:27;11.63;;;5.50;;
41101;SDS011;26845;50.190;19.178;2022-10-31T15:27:56;15.25;;;5.75;;
41101;SDS011;26845;50.190;19.178;2022-10-31T15:30:23;13.85;;;6.25;;
41101;SDS011;26845;50.190;19.178;2022-10-31T15:32:52;12.00;;;6.15;;
41101;SDS011;26845;50.190;19.178;2022-10-31T15:35:26;8.98;;;6.03;;
41101;SDS011;26845;50.190;19.178;2022-10-31T15:37:52;12.70;;;6.28;;
41101;SDS011;26845;50.190;19.178;2022-10-31T15:40:19;10.13;;;5.15;;
41101;SDS011;26845;50.190;19.178;2022-10-31T15:42:51;12.47;;;6.10;;
41101;SDS011;26845;50.190;19.178;2022-10-31T15:45:24;16.55;;;6.55;;
41101;SDS011;26845;50.190;19.178;2022-10-31T15:47:56;13.20;;;6.50;;
41101;SDS011;26845;50.190;19.178;2022-10-31T15:53:14;9.20;;;5.55;;
41101;SDS011;26845;50.190;19.178;2022-10-31T15:55:56;14.58;;;6.17;;
41101;SDS011;26845;50.190;19.178;2022-10-31T15:58:26;11.80;;;6.60;;
41101;SDS011;26845;50.190;19.178;2022-10-31T16:00:57;14.80;;;6.72;;
41101;SDS011;26845;50.190;19.178;2022-10-31T16:03:27;14.87;;;5.80;;
41101;SDS011;26845;50.190;19.178;2022-10-31T16:08:26;12.00;;;5.20;;
41101;SDS011;26845;50.190;19.178;2022-10-31T16:11:14;10.72;;;5.90;;
41101;SDS011;26845;50.190;19.178;2022-10-31T16:13:42;13.43;;;5.92;;
41101;SDS011;26845;50.190;19.178;2022-10-31T16:16:24;13.85;;;5.90;;
41101;SDS011;26845;50.190;19.178;2022-10-31T16:18:51;11.20;;;6.42;;
41101;SDS011;26845;50.190;19.178;2022-10-31T16:21:23;9.50;;;5.67;;
41101;SDS011;26845;50.190;19.178;2022-10-31T16:23:53;15.23;;;6.78;;
41101;SDS011;26845;50.190;19.178;2022-10-31T16:26:23;15.13;;;8.00;;
41101;SDS011;26845;50.190;19.178;2022-10-31T16:28:51;13.85;;;6.97;;
41101;SDS011;26845;50.190;19.178;2022-10-31T16:31:27;12.68;;;6.55;;
41101;SDS011;26845;50.190;19.178;2022-10-31T16:34:01;10.20;;;6.30;;
41101;SDS011;26845;50.190;19.178;2022-10-31T16:36:45;11.75;;;6.50;;
41101;SDS011;26845;50.190;19.178;2022-10-31T16:39:11;12.43;;;6.05;;
41101;SDS011;26845;50.190;19.178;2022-10-31T16:41:39;14.40;;;6.25;;
41101;SDS011;26845;50.190;19.178;2022-10-31T16:47:07;10.45;;;5.75;;
41101;SDS011;26845;50.190;19.178;2022-10-31T16:49:37;14.90;;;5.70;;
41101;SDS011;26845;50.190;19.178;2022-10-31T16:52:02;11.10;;;5.83;;
41101;SDS011;26845;50.190;19.178;2022-10-31T16:54:29;7.62;;;4.33;;
41101;SDS011;26845;50.190;19.178;2022-10-31T16:56:54;14.87;;;5.67;;
41101;SDS011;26845;50.190;19.178;2022-10-31T16:59:20;17.10;;;5.85;;
41101;SDS011;26845;50.190;19.178;2022-10-31T17:01:47;14.03;;;6.83;;